createdAt,value
2018-05-08T00:54:38.592Z,84.11
2018-05-08T00:57:06.958Z,84.43
2018-05-08T00:59:35.232Z,84.35
2018-05-08T01:02:03.690Z,84.12
2018-05-08T01:04:31.953Z,83.85
2018-05-08T01:07:00.232Z,83.96
2018-05-08T01:09:28.535Z,83.50
2018-05-08T01:11:56.815Z,82.06
2018-05-08T01:14:25.082Z,81.67
2018-05-08T01:16:53.361Z,82.48
2018-05-08T01:19:21.602Z,83.01
2018-05-08T01:21:50.041Z,82.58
2018-05-08T01:24:24.846Z,82.66
2018-05-08T01:26:53.149Z,81.31
2018-05-08T01:29:21.387Z,81.36
2018-05-08T01:31:49.711Z,81.62
2018-05-08T01:34:17.931Z,81.31
2018-05-08T01:36:46.434Z,80.54
2018-05-08T01:39:14.701Z,79.62
2018-05-08T01:41:43.024Z,79.90
2018-05-08T01:44:11.258Z,79.86
2018-05-08T01:46:39.569Z,79.30
2018-05-08T01:49:07.826Z,79.26
2018-05-08T01:51:36.122Z,79.66
2018-05-08T01:54:04.430Z,79.35
2018-05-08T01:56:32.779Z,79.58
2018-05-08T01:59:01.091Z,80.34
2018-05-08T02:01:29.439Z,81.68
2018-05-08T02:03:57.791Z,81.66
2018-05-08T02:06:26.388Z,80.84
2018-05-08T02:08:54.644Z,80.85
2018-05-08T02:11:22.972Z,80.46
2018-05-08T02:13:51.408Z,79.94
2018-05-08T02:16:19.702Z,79.38
2018-05-08T02:18:47.947Z,79.11
2018-05-08T02:21:16.458Z,79.01
2018-05-08T02:23:44.726Z,79.69
2018-05-08T02:26:13.033Z,78.70
2018-05-08T02:28:41.447Z,79.16
2018-05-08T02:31:09.974Z,78.96
2018-05-08T02:33:38.306Z,79.23
2018-05-08T02:36:06.897Z,79.66
2018-05-08T02:38:35.159Z,80.11
2018-05-08T02:41:03.466Z,80.13
2018-05-08T02:43:31.738Z,80.62
2018-05-08T02:46:00.058Z,80.01
2018-05-08T02:48:28.343Z,80.12
2018-05-08T02:50:56.759Z,81.19
2018-05-08T02:53:25.020Z,80.03
2018-05-08T02:55:53.515Z,79.71
2018-05-08T02:58:21.775Z,80.20
2018-05-08T03:00:50.047Z,80.81
2018-05-08T03:03:18.322Z,80.62
2018-05-08T03:05:46.598Z,80.34
2018-05-08T03:08:14.844Z,79.40
2018-05-08T03:10:43.120Z,81.09
2018-05-08T03:13:11.388Z,80.92
2018-05-08T03:15:39.718Z,81.03
2018-05-08T03:18:08.005Z,81.58
2018-05-08T03:20:36.571Z,81.60
2018-05-08T03:23:04.832Z,81.54
2018-05-08T03:25:33.122Z,81.41
2018-05-08T03:28:01.406Z,82.02
2018-05-08T03:30:29.686Z,82.34
2018-05-08T03:32:58.098Z,82.27
2018-05-08T03:35:26.551Z,82.33
2018-05-08T03:37:54.794Z,82.47
2018-05-08T03:40:23.069Z,81.54
2018-05-08T03:42:51.299Z,82.12
2018-05-08T03:45:19.661Z,81.01
2018-05-08T03:47:47.981Z,80.43
2018-05-08T03:50:15.900Z,80.09
2018-05-08T03:52:44.237Z,80.59
2018-05-08T03:55:12.556Z,80.46
2018-05-08T03:57:40.919Z,81.25
2018-05-08T04:04:19.704Z,81.94
2018-05-08T04:06:57.001Z,82.43
2018-05-08T04:09:25.258Z,81.94
2018-05-08T04:11:53.560Z,81.40
2018-05-08T04:14:21.863Z,80.85
2018-05-08T04:16:50.166Z,80.77
2018-05-08T04:19:25.126Z,81.03
2018-05-08T04:21:53.523Z,80.74
2018-05-08T04:24:21.871Z,80.92
2018-05-08T04:26:50.197Z,81.15
2018-05-08T04:29:18.463Z,80.96
2018-05-08T04:31:46.767Z,80.91
2018-05-08T04:34:15.023Z,80.13
2018-05-08T04:36:45.559Z,79.09
2018-05-08T04:39:14.682Z,78.99
2018-05-08T04:41:43.028Z,78.38
2018-05-08T04:44:11.315Z,78.37
2018-05-08T04:46:39.616Z,77.44
2018-05-08T04:49:07.887Z,76.91
2018-05-08T04:51:36.277Z,75.60
2018-05-08T04:54:04.784Z,76.90
2018-05-08T04:56:33.115Z,75.03
2018-05-08T04:59:01.375Z,75.35
2018-05-08T05:01:29.794Z,74.31
2018-05-08T05:03:58.074Z,75.10
2018-05-08T05:06:27.639Z,73.11
2018-05-08T05:08:56.091Z,72.71
2018-05-08T05:11:24.393Z,72.33
2018-05-08T05:13:52.622Z,71.72
2018-05-08T05:16:20.936Z,71.65
2018-05-08T05:18:49.181Z,72.11
2018-05-08T05:21:17.468Z,71.78
2018-05-08T05:23:45.715Z,72.08
2018-05-08T05:26:14.037Z,71.34
2018-05-08T05:28:42.314Z,71.00
2018-05-08T05:31:10.798Z,69.96
2018-05-08T05:33:39.205Z,70.58
2018-05-08T05:36:07.479Z,70.52
2018-05-08T05:38:35.739Z,69.41
2018-05-08T05:41:04.052Z,69.47
2018-05-08T05:43:32.355Z,68.65
2018-05-08T05:46:00.760Z,68.24
2018-05-08T05:48:29.012Z,68.04
2018-05-08T05:50:57.310Z,67.29
2018-05-08T05:53:25.622Z,67.72
2018-05-08T05:55:53.938Z,67.16
2018-05-08T05:58:22.207Z,67.25
2018-05-08T06:00:50.675Z,66.45
2018-05-08T06:03:18.919Z,65.69
2018-05-08T06:05:47.211Z,65.84
2018-05-08T06:08:15.680Z,66.09
2018-05-08T06:10:43.999Z,65.39
2018-05-08T06:13:12.312Z,64.77
2018-05-08T06:15:40.743Z,64.98
2018-05-08T06:18:09.022Z,64.42
2018-05-08T06:20:37.778Z,63.93
2018-05-08T06:23:06.927Z,62.53
2018-05-08T06:25:35.503Z,63.15
2018-05-08T06:28:03.930Z,62.05
2018-05-08T06:30:32.282Z,61.66
2018-05-08T06:33:01.532Z,61.73
2018-05-08T06:35:29.822Z,60.74
2018-05-08T06:37:58.160Z,60.70
2018-05-08T06:40:26.521Z,60.39
2018-05-08T06:42:55.021Z,61.30
2018-05-08T06:45:23.581Z,59.88
2018-05-08T06:47:51.944Z,59.39
2018-05-08T06:50:20.287Z,59.11
2018-05-08T06:52:48.580Z,58.71
2018-05-08T06:55:16.882Z,58.84
2018-05-08T06:57:45.155Z,58.31
2018-05-08T07:00:13.495Z,58.91
2018-05-08T07:02:43.171Z,58.31
2018-05-08T07:05:11.480Z,59.31
2018-05-08T07:07:39.830Z,58.26
2018-05-08T07:10:08.133Z,57.41
2018-05-08T07:12:36.404Z,57.14
2018-05-08T07:15:05.453Z,58.25
2018-05-08T07:17:34.167Z,56.80
2018-05-08T07:20:02.455Z,55.16
2018-05-08T07:22:30.786Z,55.43
2018-05-08T07:24:59.124Z,54.52
2018-05-08T07:27:27.503Z,54.58
2018-05-08T07:29:55.882Z,54.71
2018-05-08T07:32:24.156Z,54.97
2018-05-08T07:34:52.559Z,53.91
2018-05-08T07:37:21.128Z,54.15
2018-05-08T07:39:49.632Z,54.38
2018-05-08T07:42:17.961Z,52.55
2018-05-08T07:44:46.260Z,51.65
2018-05-08T07:47:14.570Z,51.53
2018-05-08T07:49:42.903Z,51.18
2018-05-08T07:52:11.207Z,50.19
2018-05-08T07:54:39.515Z,50.98
2018-05-08T07:57:07.815Z,50.46
2018-05-08T07:59:36.075Z,48.82
2018-05-08T08:02:04.399Z,48.92
2018-05-08T08:04:32.762Z,49.13
2018-05-08T08:07:01.069Z,48.64
2018-05-08T08:09:29.329Z,48.86
2018-05-08T08:11:57.642Z,49.01
2018-05-08T08:14:25.887Z,48.45
2018-05-08T08:16:54.250Z,44.33
2018-05-08T08:19:22.517Z,44.55
2018-05-08T08:21:52.195Z,43.77
2018-05-08T08:24:21.091Z,45.15
2018-05-08T08:26:49.418Z,43.12
2018-05-08T08:29:17.693Z,43.11
2018-05-08T08:31:46.019Z,41.78
2018-05-08T08:34:14.275Z,39.57
2018-05-08T08:36:42.940Z,39.54
2018-05-08T08:39:11.190Z,38.24
2018-05-08T08:41:39.523Z,39.55
2018-05-08T08:44:07.904Z,39.96
2018-05-08T08:46:36.259Z,38.35
2018-05-08T08:49:04.527Z,39.16
2018-05-08T08:51:33.197Z,39.57
2018-05-08T08:54:01.469Z,38.92
2018-05-08T08:56:29.763Z,39.28
2018-05-08T08:58:58.031Z,37.76
2018-05-08T09:01:26.507Z,37.27
2018-05-08T09:03:54.866Z,37.40
2018-05-08T09:06:23.271Z,37.27
2018-05-08T09:08:51.547Z,37.82
2018-05-08T09:11:19.883Z,37.85
2018-05-08T09:13:48.150Z,39.02
2018-05-08T09:16:16.785Z,36.65
2018-05-08T09:18:45.096Z,37.18
2018-05-08T09:21:13.451Z,37.25
2018-05-08T09:23:41.863Z,36.76
2018-05-08T09:26:10.191Z,37.77
2018-05-08T09:28:38.596Z,37.15
2018-05-08T09:31:07.144Z,36.57
2018-05-08T09:33:35.410Z,36.89
2018-05-08T09:36:04.721Z,36.54
2018-05-08T09:38:33.483Z,36.85
2018-05-08T09:41:04.821Z,36.01
2018-05-08T09:43:33.120Z,36.23
2018-05-08T09:46:01.670Z,36.20
2018-05-08T09:48:30.024Z,36.21
2018-05-08T09:50:58.345Z,36.24
2018-05-08T09:53:26.618Z,35.41
2018-05-08T09:55:54.922Z,36.05
2018-05-08T09:58:23.357Z,36.62
2018-05-08T10:00:51.870Z,35.38
2018-05-08T10:03:20.185Z,35.68
2018-05-08T10:05:48.486Z,36.15
2018-05-08T10:08:16.750Z,36.07
2018-05-08T10:10:45.244Z,33.59
2018-05-08T10:13:13.684Z,33.27
2018-05-08T10:15:42.235Z,33.22
2018-05-08T10:18:12.978Z,32.58
2018-05-08T10:20:42.247Z,33.77
2018-05-08T10:23:10.487Z,33.14
2018-05-08T10:25:39.411Z,32.50
2018-05-08T10:28:07.713Z,32.22
2018-05-08T10:30:36.039Z,31.46
2018-05-08T10:33:04.369Z,31.17
2018-05-08T10:35:32.639Z,30.55
2018-05-08T10:38:00.916Z,31.82
2018-05-08T10:40:29.239Z,29.80
2018-05-08T10:42:57.506Z,30.00
2018-05-08T10:45:26.734Z,29.30
2018-05-08T10:47:55.183Z,29.66
2018-05-08T10:51:22.362Z,29.58
2018-05-08T10:53:50.739Z,27.36
2018-05-08T10:56:27.094Z,28.90
2018-05-08T10:59:03.235Z,28.50
2018-05-08T11:01:46.394Z,28.50
2018-05-08T11:04:14.952Z,28.07
2018-05-08T11:06:43.415Z,27.35
2018-05-08T11:09:12.043Z,28.37
2018-05-08T11:11:40.874Z,27.79
2018-05-08T11:14:09.153Z,27.06
2018-05-08T11:16:37.434Z,26.73
2018-05-08T11:19:08.990Z,25.55
2018-05-08T11:21:38.767Z,24.76
2018-05-08T11:24:08.267Z,25.81
2018-05-08T11:26:37.123Z,24.98
2018-05-08T11:29:06.183Z,25.66
2018-05-08T11:31:34.686Z,25.08
2018-05-08T11:34:02.945Z,25.17
2018-05-08T11:36:31.578Z,25.46
2018-05-08T11:38:59.890Z,24.63
2018-05-08T11:41:28.243Z,25.73
2018-05-08T11:43:56.527Z,23.54
2018-05-08T11:46:24.838Z,24.53
2018-05-08T11:48:53.116Z,24.78
2018-05-08T11:51:21.444Z,23.05
2018-05-08T11:53:50.100Z,23.14
2018-05-08T11:56:18.559Z,23.59
2018-05-08T11:58:46.860Z,22.62
2018-05-08T12:01:15.208Z,23.98
2018-05-08T12:03:43.484Z,24.45
2018-05-08T12:06:11.927Z,24.21
2018-05-08T12:08:40.278Z,24.83
2018-05-08T12:11:08.624Z,23.13
2018-05-08T12:13:37.102Z,24.91
2018-05-08T12:16:05.414Z,24.43
2018-05-08T12:18:33.750Z,23.34
2018-05-08T12:21:02.058Z,23.21
2018-05-08T12:23:30.418Z,23.52
2018-05-08T12:25:58.738Z,20.95
2018-05-08T12:28:27.031Z,21.76
2018-05-08T12:30:56.420Z,22.41
2018-05-08T12:33:25.208Z,22.82
2018-05-08T12:35:53.567Z,22.43
2018-05-08T12:38:21.912Z,21.57
2018-05-08T12:40:50.731Z,22.05
2018-05-08T12:43:20.682Z,22.17
2018-05-08T12:45:50.915Z,21.95
2018-05-08T12:48:19.702Z,22.20
2018-05-08T12:50:49.099Z,22.44
2018-05-08T12:53:18.790Z,22.08
2018-05-08T12:55:50.357Z,21.97
2018-05-08T12:58:20.619Z,20.70
2018-05-08T13:00:48.949Z,21.86
2018-05-08T13:03:18.552Z,20.71
2018-05-08T13:05:46.872Z,21.83
2018-05-08T13:08:15.259Z,22.11
2018-05-08T13:10:43.578Z,21.33
2018-05-08T13:13:11.846Z,18.73
2018-05-08T13:15:40.127Z,18.89
2018-05-08T13:18:08.431Z,19.89
2018-05-08T13:20:38.208Z,19.53
2018-05-08T13:23:06.863Z,19.94
2018-05-08T13:25:35.291Z,20.90
2018-05-08T13:28:03.582Z,19.77
2018-05-08T13:30:31.970Z,18.70
2018-05-08T13:33:00.262Z,17.10
2018-05-08T13:35:28.581Z,18.91
2018-05-08T13:37:57.321Z,20.21
2018-05-08T13:40:25.654Z,19.53
2018-05-08T13:42:55.135Z,19.03
2018-05-08T13:45:24.470Z,19.70
2018-05-08T13:47:52.816Z,18.03
2018-05-08T13:50:21.232Z,18.25
2018-05-08T13:52:49.536Z,17.89
2018-05-08T13:55:17.872Z,17.69
2018-05-08T13:57:46.264Z,18.68
2018-05-08T14:00:14.595Z,19.00
2018-05-08T14:02:42.920Z,17.95
2018-05-08T14:05:11.463Z,17.54
2018-05-08T14:07:39.770Z,18.23
2018-05-08T14:10:08.134Z,18.30
2018-05-08T14:12:36.612Z,18.89
2018-05-08T14:15:04.987Z,18.06
2018-05-08T14:17:33.512Z,17.40
2018-05-08T14:20:02.142Z,16.50
2018-05-08T14:22:30.507Z,16.79
2018-05-08T14:24:58.968Z,16.65
2018-05-08T14:27:27.345Z,18.40
2018-05-08T14:29:55.934Z,18.58
2018-05-08T14:32:24.393Z,18.65
2018-05-08T14:34:52.731Z,19.14
2018-05-08T14:37:21.704Z,19.58
2018-05-08T14:39:50.080Z,19.42
2018-05-08T14:42:18.378Z,17.82
2018-05-08T14:44:46.654Z,17.95
2018-05-08T14:47:15.059Z,17.26
2018-05-08T14:49:43.340Z,18.53
2018-05-08T14:52:11.654Z,18.42
2018-05-08T14:54:39.959Z,19.18
2018-05-08T14:57:08.449Z,18.45
2018-05-08T14:59:38.188Z,19.60
2018-05-08T15:02:10.433Z,19.51
2018-05-08T15:04:39.350Z,19.26
2018-05-08T15:07:07.897Z,20.34
2018-05-08T15:09:36.685Z,21.23
2018-05-08T15:12:05.419Z,20.32
2018-05-08T15:14:34.458Z,22.25
2018-05-08T15:17:02.870Z,24.39
2018-05-08T15:19:31.125Z,27.69
2018-05-08T15:21:59.605Z,27.52
2018-05-08T15:24:29.277Z,30.06
2018-05-08T15:26:58.199Z,27.90
2018-05-08T15:29:26.572Z,28.96
2018-05-08T15:31:54.861Z,29.17
2018-05-08T15:34:23.155Z,29.47
2018-05-08T15:36:51.456Z,29.71
2018-05-08T15:39:19.748Z,29.22
2018-05-08T15:41:48.076Z,28.96
2018-05-08T15:44:16.403Z,28.35
2018-05-08T15:46:44.749Z,28.85
2018-05-08T15:49:13.038Z,29.93
2018-05-08T15:51:41.331Z,29.64
2018-05-08T15:54:09.611Z,29.75
2018-05-08T15:56:39.203Z,28.83
2018-05-08T15:59:07.875Z,28.85
2018-05-08T16:01:36.359Z,31.04
2018-05-08T16:04:04.794Z,28.40
2018-05-08T16:06:33.079Z,28.87
2018-05-08T16:09:01.348Z,28.70
2018-05-08T16:11:30.618Z,29.42
2018-05-08T16:14:01.871Z,29.90
2018-05-08T16:16:30.243Z,29.16
2018-05-08T16:18:58.498Z,29.63
2018-05-08T16:21:26.841Z,29.75
2018-05-08T16:23:55.107Z,30.27
2018-05-08T16:26:23.421Z,30.35
2018-05-08T16:28:53.129Z,30.42
2018-05-08T16:31:21.529Z,31.04
2018-05-08T16:33:50.026Z,30.14
2018-05-08T16:36:18.331Z,30.34
2018-05-08T16:38:46.579Z,30.16
2018-05-08T16:41:14.887Z,30.34
2018-05-08T16:43:43.163Z,30.41
2018-05-08T16:46:11.509Z,30.73
2018-05-08T16:48:39.828Z,32.63
2018-05-08T16:51:08.127Z,31.60
2018-05-08T16:53:36.393Z,32.52
2018-05-08T16:56:04.690Z,33.45
2018-05-08T16:58:32.957Z,32.43
2018-05-08T17:01:01.263Z,31.82
2018-05-08T17:03:29.556Z,31.75
2018-05-08T17:05:57.841Z,32.07
2018-05-08T17:08:26.166Z,31.69
2018-05-08T17:10:54.475Z,32.33
2018-05-08T17:13:22.731Z,31.82
2018-05-08T17:15:51.064Z,32.91
2018-05-08T17:18:19.340Z,32.90
2018-05-08T17:20:47.631Z,32.26
2018-05-08T17:23:15.944Z,32.85
2018-05-08T17:25:44.480Z,33.34
2018-05-08T17:28:12.712Z,33.44
2018-05-08T17:30:41.046Z,33.59
2018-05-08T17:33:09.303Z,33.46
2018-05-08T17:35:37.577Z,34.37
2018-05-08T17:38:06.847Z,33.86
2018-05-08T17:40:35.288Z,34.15
2018-05-08T17:43:03.831Z,34.67
2018-05-08T17:45:32.113Z,33.65
2018-05-08T17:48:00.378Z,34.67
2018-05-08T17:50:28.724Z,34.28
2018-05-08T17:52:57.119Z,34.35
2018-05-08T17:55:25.415Z,34.88
2018-05-08T17:57:53.782Z,36.99
2018-05-08T18:00:23.964Z,35.71
2018-05-08T18:02:52.348Z,36.12
2018-05-08T18:05:20.870Z,37.15
2018-05-08T18:07:49.121Z,36.94
2018-05-08T18:10:17.567Z,36.64
2018-05-08T18:12:45.849Z,36.22
2018-05-08T18:15:14.171Z,37.17
2018-05-08T18:17:42.504Z,38.34
2018-05-08T18:20:10.763Z,38.73
2018-05-08T18:22:39.209Z,38.77
2018-05-08T18:25:07.506Z,38.88
2018-05-08T18:27:35.747Z,39.37
2018-05-08T18:30:04.040Z,40.61
2018-05-08T18:32:32.282Z,38.90
2018-05-08T18:35:00.530Z,40.81
2018-05-08T18:37:28.924Z,41.45
2018-05-08T18:39:57.200Z,40.75
2018-05-08T18:42:25.674Z,41.10
2018-05-08T18:44:54.011Z,43.57
2018-05-08T18:47:22.361Z,44.09
2018-05-08T18:49:50.635Z,45.05
2018-05-08T18:52:18.943Z,43.47
2018-05-08T18:54:47.287Z,45.23
2018-05-08T18:57:15.619Z,46.13
2018-05-08T18:59:43.887Z,44.97
2018-05-08T19:02:12.162Z,44.43
2018-05-08T19:04:40.757Z,47.12
2018-05-08T19:07:09.236Z,45.58
2018-05-08T19:09:37.506Z,48.83
2018-05-08T19:12:06.163Z,48.11
2018-05-08T19:14:34.525Z,50.94
2018-05-08T19:17:02.795Z,50.34
2018-05-08T19:20:33.728Z,52.38
2018-05-08T19:23:02.349Z,51.90
2018-05-08T19:25:30.650Z,50.77
2018-05-08T19:28:03.099Z,51.19
2018-05-08T19:30:31.741Z,50.71
2018-05-08T19:32:59.991Z,50.49
2018-05-08T19:35:32.507Z,51.41
2018-05-08T19:38:05.483Z,51.18
2018-05-08T19:40:33.803Z,51.96
2018-05-08T19:43:02.071Z,50.55
2018-05-08T19:45:30.421Z,50.58
2018-05-08T19:47:58.723Z,50.72
2018-05-08T19:50:27.035Z,54.59
2018-05-08T19:52:55.396Z,51.05
2018-05-08T19:55:23.730Z,49.28
2018-05-08T19:57:52.086Z,51.42
2018-05-08T20:00:20.436Z,49.74
2018-05-08T20:02:48.856Z,50.32
2018-05-08T20:05:17.220Z,52.57
2018-05-08T20:07:45.494Z,50.06
2018-05-08T20:10:14.035Z,50.28
2018-05-08T20:12:42.575Z,48.34
2018-05-08T20:15:11.054Z,50.04
2018-05-08T20:17:40.163Z,50.25
2018-05-08T20:20:08.495Z,50.30
2018-05-08T20:22:36.781Z,49.57
2018-05-08T20:25:05.095Z,49.39
2018-05-08T20:27:33.510Z,49.47
2018-05-08T20:30:01.778Z,50.73
2018-05-08T20:32:30.095Z,50.91
2018-05-08T20:34:59.264Z,49.86
2018-05-08T20:37:28.692Z,50.23
2018-05-08T20:39:56.989Z,52.21
2018-05-08T20:42:25.269Z,50.56
2018-05-08T20:44:53.528Z,50.03
2018-05-08T20:47:21.852Z,50.80
2018-05-08T20:49:50.248Z,51.26
2018-05-08T20:52:18.562Z,50.44
2018-05-08T20:54:46.874Z,52.85
2018-05-08T20:57:15.221Z,51.19
2018-05-08T20:59:43.550Z,50.37
2018-05-08T21:02:11.910Z,50.20
2018-05-08T21:04:40.798Z,50.30
2018-05-08T21:07:10.812Z,51.18
2018-05-08T21:09:39.413Z,49.97
2018-05-08T21:12:07.779Z,51.96
2018-05-08T21:14:36.056Z,52.60
2018-05-08T21:17:04.393Z,51.25
2018-05-08T21:19:32.769Z,51.30
2018-05-08T21:22:01.064Z,53.97
2018-05-08T21:24:29.348Z,53.63
2018-05-08T21:26:57.642Z,52.99
2018-05-08T21:29:30.098Z,52.46
2018-05-08T21:31:58.443Z,52.68
2018-05-08T21:34:26.757Z,52.79
2018-05-08T21:36:55.147Z,52.54
2018-05-08T21:39:23.414Z,53.87
2018-05-08T21:41:51.737Z,52.80
2018-05-08T21:44:20.052Z,52.81
2018-05-08T21:46:48.398Z,52.80
2018-05-08T21:49:16.658Z,53.47
2018-05-08T21:51:44.996Z,54.58
2018-05-08T21:54:13.246Z,53.30
2018-05-08T21:56:41.702Z,54.78
2018-05-08T21:59:10.143Z,54.16
2018-05-08T22:01:38.451Z,56.35
2018-05-08T22:04:06.721Z,54.50
2018-05-08T22:06:35.054Z,54.25
2018-05-08T22:09:03.324Z,54.52
2018-05-08T22:11:31.614Z,55.07
2018-05-08T22:13:59.860Z,55.97
2018-05-08T22:16:28.204Z,57.09
2018-05-08T22:18:56.578Z,57.23
2018-05-08T22:21:24.915Z,56.67
2018-05-08T22:23:53.226Z,55.87
2018-05-08T22:26:21.539Z,55.84
2018-05-08T22:28:49.808Z,56.29
2018-05-08T22:31:18.194Z,55.97
2018-05-08T22:33:46.512Z,56.37
2018-05-08T22:36:14.839Z,56.08
2018-05-08T22:38:43.191Z,56.53
2018-05-08T22:41:11.495Z,55.78
2018-05-08T22:43:39.778Z,56.06
2018-05-08T22:46:08.088Z,55.85
2018-05-08T22:48:36.360Z,60.11
2018-05-08T22:51:04.659Z,58.45
2018-05-08T22:53:32.926Z,58.91
2018-05-08T22:56:01.239Z,58.30
2018-05-08T22:58:29.510Z,57.38
2018-05-08T23:00:57.910Z,57.49
2018-05-08T23:03:27.581Z,57.85
2018-05-08T23:05:56.995Z,58.83
2018-05-08T23:08:25.275Z,58.15
2018-05-08T23:10:53.628Z,58.69
2018-05-08T23:13:21.919Z,59.73
2018-05-08T23:15:50.239Z,58.58
2018-05-08T23:18:18.533Z,58.35
2018-05-08T23:20:46.840Z,57.21
2018-05-08T23:23:15.092Z,56.81
2018-05-08T23:25:44.454Z,57.47
2018-05-08T23:28:12.738Z,58.23
2018-05-08T23:30:41.119Z,59.71
2018-05-08T23:33:09.367Z,60.30
2018-05-08T23:35:37.718Z,58.68
2018-05-08T23:38:06.113Z,56.14
2018-05-08T23:40:34.436Z,58.11
2018-05-08T23:43:02.663Z,58.40
2018-05-08T23:45:30.970Z,57.90
2018-05-08T23:47:59.266Z,59.77
2018-05-08T23:50:27.702Z,57.58
2018-05-08T23:52:55.994Z,57.52
2018-05-08T23:55:24.547Z,57.43
2018-05-08T23:57:52.896Z,57.61
